sensor_id;sensor_type;location;lat;lon;timestamp;P1;durP1;ratioP1;P2;durP2;ratioP2
3979;SDS011;2004;52.452;13.120;2023-04-12T00:01:37;2.80;;;2.30;;
3979;SDS011;2004;52.452;13.120;2023-04-12T00:09:28;2.27;;;1.70;;
3979;SDS011;2004;52.452;13.120;2023-04-12T00:17:22;7.13;;;2.60;;
3979;SDS011;2004;52.452;13.120;2023-04-12T00:25:12;2.40;;;2.20;;
3979;SDS011;2004;52.452;13.120;2023-04-12T00:33:03;3.30;;;2.00;;
3979;SDS011;2004;52.452;13.120;2023-04-12T00:40:54;2.20;;;1.70;;
3979;SDS011;2004;52.452;13.120;2023-04-12T00:48:45;3.80;;;2.57;;
3979;SDS011;2004;52.452;13.120;2023-04-12T00:56:37;2.73;;;1.60;;
3979;SDS011;2004;52.452;13.120;2023-04-12T01:04:29;2.00;;;1.80;;
3979;SDS011;2004;52.452;13.120;2023-04-12T01:20:30;6.07;;;1.77;;
3979;SDS011;2004;52.452;13.120;2023-04-12T01:28:31;3.13;;;1.73;;
3979;SDS011;2004;52.452;13.120;2023-04-12T01:36:24;1.73;;;1.57;;
3979;SDS011;2004;52.452;13.120;2023-04-12T01:44:19;5.00;;;1.63;;
3979;SDS011;2004;52.452;13.120;2023-04-12T01:52:11;6.13;;;1.80;;
3979;SDS011;2004;52.452;13.120;2023-04-12T02:00:03;5.13;;;2.40;;
3979;SDS011;2004;52.452;13.120;2023-04-12T02:07:57;5.17;;;1.90;;
3979;SDS011;2004;52.452;13.120;2023-04-12T02:15:48;1.83;;;1.70;;
3979;SDS011;2004;52.452;13.120;2023-04-12T02:23:39;2.30;;;1.60;;
3979;SDS011;2004;52.452;13.120;2023-04-12T02:31:30;9.27;;;1.53;;
3979;SDS011;2004;52.452;13.120;2023-04-12T02:39:21;1.90;;;1.70;;
3979;SDS011;2004;52.452;13.120;2023-04-12T02:47:13;3.57;;;2.40;;
3979;SDS011;2004;52.452;13.120;2023-04-12T02:55:03;2.07;;;1.50;;
3979;SDS011;2004;52.452;13.120;2023-04-12T03:02:54;3.73;;;2.03;;
3979;SDS011;2004;52.452;13.120;2023-04-12T03:10:48;2.67;;;1.70;;
3979;SDS011;2004;52.452;13.120;2023-04-12T03:18:38;1.70;;;1.60;;
3979;SDS011;2004;52.452;13.120;2023-04-12T03:26:29;2.80;;;2.00;;
3979;SDS011;2004;52.452;13.120;2023-04-12T03:34:20;2.00;;;1.90;;
3979;SDS011;2004;52.452;13.120;2023-04-12T03:42:12;2.80;;;2.13;;
3979;SDS011;2004;52.452;13.120;2023-04-12T03:50:04;5.30;;;2.40;;
3979;SDS011;2004;52.452;13.120;2023-04-12T03:57:56;4.67;;;2.30;;
3979;SDS011;2004;52.452;13.120;2023-04-12T04:05:47;5.13;;;2.53;;
3979;SDS011;2004;52.452;13.120;2023-04-12T04:13:39;6.60;;;2.63;;
3979;SDS011;2004;52.452;13.120;2023-04-12T04:21:29;3.67;;;2.27;;
3979;SDS011;2004;52.452;13.120;2023-04-12T04:29:21;4.93;;;2.53;;
3979;SDS011;2004;52.452;13.120;2023-04-12T04:37:12;4.00;;;2.70;;
3979;SDS011;2004;52.452;13.120;2023-04-12T04:45:03;5.03;;;3.60;;
3979;SDS011;2004;52.452;13.120;2023-04-12T04:53:02;4.27;;;2.57;;
3979;SDS011;2004;52.452;13.120;2023-04-12T05:00:56;5.00;;;3.00;;
3979;SDS011;2004;52.452;13.120;2023-04-12T05:08:48;9.33;;;3.80;;
3979;SDS011;2004;52.452;13.120;2023-04-12T05:16:38;7.37;;;3.60;;
3979;SDS011;2004;52.452;13.120;2023-04-12T05:24:29;9.13;;;3.90;;
3979;SDS011;2004;52.452;13.120;2023-04-12T05:32:21;6.03;;;4.40;;
3979;SDS011;2004;52.452;13.120;2023-04-12T05:40:13;7.60;;;4.10;;
3979;SDS011;2004;52.452;13.120;2023-04-12T05:48:04;4.50;;;3.60;;
3979;SDS011;2004;52.452;13.120;2023-04-12T05:55:55;4.47;;;3.23;;
3979;SDS011;2004;52.452;13.120;2023-04-12T06:03:46;5.67;;;3.60;;
3979;SDS011;2004;52.452;13.120;2023-04-12T06:11:37;4.83;;;4.03;;
3979;SDS011;2004;52.452;13.120;2023-04-12T06:19:28;5.30;;;3.20;;
3979;SDS011;2004;52.452;13.120;2023-04-12T06:27:18;5.93;;;3.40;;
3979;SDS011;2004;52.452;13.120;2023-04-12T06:35:11;6.40;;;3.57;;
3979;SDS011;2004;52.452;13.120;2023-04-12T06:43:02;7.00;;;3.13;;
3979;SDS011;2004;52.452;13.120;2023-04-12T06:50:52;5.30;;;3.13;;
3979;SDS011;2004;52.452;13.120;2023-04-12T06:58:46;4.73;;;2.40;;
3979;SDS011;2004;52.452;13.120;2023-04-12T07:06:37;2.43;;;1.90;;
3979;SDS011;2004;52.452;13.120;2023-04-12T07:14:29;1.83;;;1.67;;
3979;SDS011;2004;52.452;13.120;2023-04-12T07:22:20;3.33;;;2.17;;
3979;SDS011;2004;52.452;13.120;2023-04-12T07:30:11;4.23;;;1.60;;
3979;SDS011;2004;52.452;13.120;2023-04-12T07:38:02;3.00;;;1.50;;
3979;SDS011;2004;52.452;13.120;2023-04-12T07:45:53;3.97;;;1.37;;
3979;SDS011;2004;52.452;13.120;2023-04-12T07:53:45;7.40;;;1.37;;
3979;SDS011;2004;52.452;13.120;2023-04-12T08:01:37;1.80;;;1.17;;
3979;SDS011;2004;52.452;13.120;2023-04-12T08:09:27;4.30;;;1.50;;
3979;SDS011;2004;52.452;13.120;2023-04-12T08:17:19;7.73;;;1.40;;
3979;SDS011;2004;52.452;13.120;2023-04-12T08:25:09;4.77;;;1.53;;
3979;SDS011;2004;52.452;13.120;2023-04-12T08:33:00;6.73;;;2.00;;
3979;SDS011;2004;52.452;13.120;2023-04-12T08:40:51;3.67;;;1.37;;
3979;SDS011;2004;52.452;13.120;2023-04-12T08:48:45;4.10;;;1.60;;
3979;SDS011;2004;52.452;13.120;2023-04-12T08:56:37;3.87;;;1.10;;
3979;SDS011;2004;52.452;13.120;2023-04-12T09:04:31;2.50;;;1.40;;
3979;SDS011;2004;52.452;13.120;2023-04-12T09:12:22;4.60;;;1.60;;
3979;SDS011;2004;52.452;13.120;2023-04-12T09:28:16;1.97;;;1.40;;
3979;SDS011;2004;52.452;13.120;2023-04-12T09:36:10;2.17;;;1.70;;
3979;SDS011;2004;52.452;13.120;2023-04-12T09:44:04;4.20;;;1.57;;
3979;SDS011;2004;52.452;13.120;2023-04-12T09:51:55;5.33;;;1.27;;
3979;SDS011;2004;52.452;13.120;2023-04-12T09:59:45;9.70;;;2.13;;
3979;SDS011;2004;52.452;13.120;2023-04-12T10:07:40;2.27;;;1.17;;
3979;SDS011;2004;52.452;13.120;2023-04-12T10:15:31;5.27;;;1.30;;
3979;SDS011;2004;52.452;13.120;2023-04-12T10:23:25;5.20;;;1.53;;
3979;SDS011;2004;52.452;13.120;2023-04-12T10:31:29;5.10;;;1.23;;
3979;SDS011;2004;52.452;13.120;2023-04-12T10:55:45;9.97;;;1.83;;
3979;SDS011;2004;52.452;13.120;2023-04-12T11:03:51;4.03;;;1.30;;
3979;SDS011;2004;52.452;13.120;2023-04-12T11:19:56;5.20;;;1.53;;
3979;SDS011;2004;52.452;13.120;2023-04-12T11:27:51;8.13;;;1.40;;
3979;SDS011;2004;52.452;13.120;2023-04-12T11:35:43;7.53;;;2.20;;
3979;SDS011;2004;52.452;13.120;2023-04-12T11:43:35;3.83;;;1.13;;
3979;SDS011;2004;52.452;13.120;2023-04-12T11:51:29;4.77;;;1.30;;
3979;SDS011;2004;52.452;13.120;2023-04-12T11:59:21;4.57;;;1.27;;
3979;SDS011;2004;52.452;13.120;2023-04-12T12:07:12;5.60;;;2.20;;
3979;SDS011;2004;52.452;13.120;2023-04-12T12:15:04;6.77;;;1.57;;
3979;SDS011;2004;52.452;13.120;2023-04-12T12:22:59;6.13;;;1.43;;
3979;SDS011;2004;52.452;13.120;2023-04-12T12:30:53;2.13;;;1.17;;
3979;SDS011;2004;52.452;13.120;2023-04-12T12:38:45;3.90;;;1.10;;
3979;SDS011;2004;52.452;13.120;2023-04-12T12:46:37;6.03;;;1.00;;
3979;SDS011;2004;52.452;13.120;2023-04-12T12:54:29;7.07;;;1.37;;
3979;SDS011;2004;52.452;13.120;2023-04-12T13:02:19;1.83;;;1.30;;
3979;SDS011;2004;52.452;13.120;2023-04-12T13:10:10;2.70;;;1.57;;
3979;SDS011;2004;52.452;13.120;2023-04-12T13:18:01;6.40;;;1.60;;
3979;SDS011;2004;52.452;13.120;2023-04-12T13:25:51;5.03;;;1.40;;
3979;SDS011;2004;52.452;13.120;2023-04-12T13:33:42;1.40;;;1.10;;
3979;SDS011;2004;52.452;13.120;2023-04-12T13:41:32;3.33;;;1.30;;
3979;SDS011;2004;52.452;13.120;2023-04-12T13:49:23;3.63;;;1.07;;
3979;SDS011;2004;52.452;13.120;2023-04-12T13:57:14;1.20;;;1.10;;
3979;SDS011;2004;52.452;13.120;2023-04-12T14:05:05;3.73;;;0.80;;
3979;SDS011;2004;52.452;13.120;2023-04-12T14:12:56;2.83;;;1.23;;
3979;SDS011;2004;52.452;13.120;2023-04-12T14:20:47;2.63;;;1.10;;
3979;SDS011;2004;52.452;13.120;2023-04-12T14:28:47;2.63;;;1.17;;
3979;SDS011;2004;52.452;13.120;2023-04-12T14:36:38;4.17;;;1.10;;
3979;SDS011;2004;52.452;13.120;2023-04-12T14:44:31;5.33;;;1.30;;
3979;SDS011;2004;52.452;13.120;2023-04-12T14:52:22;6.77;;;1.77;;
3979;SDS011;2004;52.452;13.120;2023-04-12T15:00:12;9.87;;;1.50;;
3979;SDS011;2004;52.452;13.120;2023-04-12T15:08:05;2.80;;;1.50;;
3979;SDS011;2004;52.452;13.120;2023-04-12T15:15:55;2.67;;;1.30;;
3979;SDS011;2004;52.452;13.120;2023-04-12T15:23:46;6.40;;;1.93;;
3979;SDS011;2004;52.452;13.120;2023-04-12T15:31:36;8.27;;;2.03;;
3979;SDS011;2004;52.452;13.120;2023-04-12T15:39:28;1.87;;;1.73;;
3979;SDS011;2004;52.452;13.120;2023-04-12T15:47:19;6.10;;;2.33;;
3979;SDS011;2004;52.452;13.120;2023-04-12T15:55:09;4.33;;;1.77;;
3979;SDS011;2004;52.452;13.120;2023-04-12T16:03:02;5.63;;;2.37;;
3979;SDS011;2004;52.452;13.120;2023-04-12T16:10:54;5.83;;;2.10;;
3979;SDS011;2004;52.452;13.120;2023-04-12T16:18:44;4.63;;;2.30;;
3979;SDS011;2004;52.452;13.120;2023-04-12T16:26:37;3.50;;;2.53;;
3979;SDS011;2004;52.452;13.120;2023-04-12T16:34:29;3.43;;;2.23;;
3979;SDS011;2004;52.452;13.120;2023-04-12T16:42:21;6.27;;;1.90;;
3979;SDS011;2004;52.452;13.120;2023-04-12T16:50:12;1.90;;;1.63;;
3979;SDS011;2004;52.452;13.120;2023-04-12T16:58:04;5.60;;;1.70;;
3979;SDS011;2004;52.452;13.120;2023-04-12T17:05:54;3.00;;;1.30;;
3979;SDS011;2004;52.452;13.120;2023-04-12T17:13:45;7.53;;;1.30;;
3979;SDS011;2004;52.452;13.120;2023-04-12T17:21:39;3.60;;;1.30;;
3979;SDS011;2004;52.452;13.120;2023-04-12T17:29:32;1.40;;;1.30;;
3979;SDS011;2004;52.452;13.120;2023-04-12T17:37:23;3.63;;;1.30;;
3979;SDS011;2004;52.452;13.120;2023-04-12T17:45:16;1.60;;;1.50;;
3979;SDS011;2004;52.452;13.120;2023-04-12T17:53:10;4.57;;;1.90;;
3979;SDS011;2004;52.452;13.120;2023-04-12T18:01:01;5.10;;;1.60;;
3979;SDS011;2004;52.452;13.120;2023-04-12T18:08:52;4.13;;;3.07;;
3979;SDS011;2004;52.452;13.120;2023-04-12T18:16:42;1.70;;;1.60;;
3979;SDS011;2004;52.452;13.120;2023-04-12T18:24:33;2.40;;;2.20;;
3979;SDS011;2004;52.452;13.120;2023-04-12T18:32:24;3.30;;;2.37;;
3979;SDS011;2004;52.452;13.120;2023-04-12T18:40:14;4.83;;;2.37;;
3979;SDS011;2004;52.452;13.120;2023-04-12T18:48:06;3.27;;;2.50;;
3979;SDS011;2004;52.452;13.120;2023-04-12T18:56:05;2.23;;;1.80;;
3979;SDS011;2004;52.452;13.120;2023-04-12T19:04:00;3.93;;;2.80;;
3979;SDS011;2004;52.452;13.120;2023-04-12T19:11:53;4.77;;;2.20;;
3979;SDS011;2004;52.452;13.120;2023-04-12T19:19:45;2.17;;;1.90;;
3979;SDS011;2004;52.452;13.120;2023-04-12T19:27:36;3.67;;;1.97;;
3979;SDS011;2004;52.452;13.120;2023-04-12T19:35:28;11.90;;;2.00;;
3979;SDS011;2004;52.452;13.120;2023-04-12T19:43:21;3.70;;;2.10;;
3979;SDS011;2004;52.452;13.120;2023-04-12T19:51:14;5.57;;;2.00;;
3979;SDS011;2004;52.452;13.120;2023-04-12T19:59:05;3.37;;;2.00;;
3979;SDS011;2004;52.452;13.120;2023-04-12T20:06:55;2.80;;;2.23;;
3979;SDS011;2004;52.452;13.120;2023-04-12T20:14:46;3.53;;;2.20;;
3979;SDS011;2004;52.452;13.120;2023-04-12T20:22:37;6.63;;;2.77;;
3979;SDS011;2004;52.452;13.120;2023-04-12T20:30:31;5.57;;;2.50;;
3979;SDS011;2004;52.452;13.120;2023-04-12T20:38:22;3.13;;;2.87;;
3979;SDS011;2004;52.452;13.120;2023-04-12T20:46:13;5.70;;;2.50;;
3979;SDS011;2004;52.452;13.120;2023-04-12T20:54:06;4.70;;;3.50;;
3979;SDS011;2004;52.452;13.120;2023-04-12T21:01:58;4.70;;;3.63;;
3979;SDS011;2004;52.452;13.120;2023-04-12T21:09:50;13.20;;;3.30;;
3979;SDS011;2004;52.452;13.120;2023-04-12T21:17:41;5.37;;;3.50;;
3979;SDS011;2004;52.452;13.120;2023-04-12T21:25:31;9.40;;;3.70;;
3979;SDS011;2004;52.452;13.120;2023-04-12T21:33:22;10.03;;;3.33;;
3979;SDS011;2004;52.452;13.120;2023-04-12T21:41:15;5.13;;;3.37;;
3979;SDS011;2004;52.452;13.120;2023-04-12T21:49:06;6.30;;;3.87;;
3979;SDS011;2004;52.452;13.120;2023-04-12T21:56:56;6.47;;;3.90;;
3979;SDS011;2004;52.452;13.120;2023-04-12T22:04:47;5.43;;;4.00;;
3979;SDS011;2004;52.452;13.120;2023-04-12T22:12:38;5.13;;;3.40;;
3979;SDS011;2004;52.452;13.120;2023-04-12T22:20:29;4.13;;;3.13;;
3979;SDS011;2004;52.452;13.120;2023-04-12T22:28:22;6.03;;;3.90;;
3979;SDS011;2004;52.452;13.120;2023-04-12T22:36:13;10.90;;;4.33;;
3979;SDS011;2004;52.452;13.120;2023-04-12T22:44:04;5.83;;;4.03;;
3979;SDS011;2004;52.452;13.120;2023-04-12T22:51:56;5.87;;;4.00;;
3979;SDS011;2004;52.452;13.120;2023-04-12T22:59:47;5.17;;;4.03;;
3979;SDS011;2004;52.452;13.120;2023-04-12T23:07:37;6.50;;;3.83;;
3979;SDS011;2004;52.452;13.120;2023-04-12T23:15:32;6.33;;;4.70;;
3979;SDS011;2004;52.452;13.120;2023-04-12T23:23:23;8.00;;;4.90;;
3979;SDS011;2004;52.452;13.120;2023-04-12T23:31:14;6.07;;;5.00;;
3979;SDS011;2004;52.452;13.120;2023-04-12T23:39:04;7.70;;;6.07;;
3979;SDS011;2004;52.452;13.120;2023-04-12T23:46:58;6.97;;;5.60;;
3979;SDS011;2004;52.452;13.120;2023-04-12T23:54:49;7.73;;;5.73;;
